sensor_id;sensor_type;location;lat;lon;timestamp;pressure;altitude;pressure_sealevel;temperature;humidity
77897;BME280;67092;64.282;21.056;2023-06-24T00:01:40;100804.27;;;23.02;32.78
77897;BME280;67092;64.282;21.056;2023-06-24T00:04:06;100804.80;;;22.62;33.24
77897;BME280;67092;64.282;21.056;2023-06-24T00:06:32;100805.65;;;22.78;33.08
77897;BME280;67092;64.282;21.056;2023-06-24T00:08:57;100805.91;;;22.50;33.44
77897;BME280;67092;64.282;21.056;2023-06-24T00:11:22;100809.32;;;22.32;33.68
77897;BME280;67092;64.282;21.056;2023-06-24T00:13:48;100810.88;;;23.15;33.27
77897;BME280;67092;64.282;21.056;2023-06-24T00:16:14;100808.65;;;22.43;33.61
77897;BME280;67092;64.282;21.056;2023-06-24T00:18:40;100813.40;;;22.46;33.56
77897;BME280;67092;64.282;21.056;2023-06-24T00:21:05;100809.69;;;22.65;33.58
77897;BME280;67092;64.282;21.056;2023-06-24T00:23:31;100816.20;;;23.20;32.64
77897;BME280;67092;64.282;21.056;2023-06-24T00:25:56;100814.21;;;22.57;33.38
77897;BME280;67092;64.282;21.056;2023-06-24T00:28:22;100816.33;;;22.64;32.96
77897;BME280;67092;64.282;21.056;2023-06-24T00:30:48;100817.04;;;22.64;33.36
77897;BME280;67092;64.282;21.056;2023-06-24T00:33:13;100818.69;;;22.64;33.68
77897;BME280;67092;64.282;21.056;2023-06-24T00:35:38;100817.84;;;22.78;33.14
77897;BME280;67092;64.282;21.056;2023-06-24T00:38:04;100817.58;;;22.94;32.73
77897;BME280;67092;64.282;21.056;2023-06-24T00:40:30;100815.70;;;22.70;33.30
77897;BME280;67092;64.282;21.056;2023-06-24T00:42:56;100813.74;;;22.55;33.49
77897;BME280;67092;64.282;21.056;2023-06-24T00:45:21;100812.87;;;22.63;33.44
77897;BME280;67092;64.282;21.056;2023-06-24T00:47:46;100815.90;;;22.49;33.61
77897;BME280;67092;64.282;21.056;2023-06-24T00:50:12;100811.86;;;22.58;33.48
77897;BME280;67092;64.282;21.056;2023-06-24T00:52:38;100813.81;;;22.48;33.68
77897;BME280;67092;64.282;21.056;2023-06-24T00:55:04;100815.30;;;22.31;33.57
77897;BME280;67092;64.282;21.056;2023-06-24T00:57:29;100812.80;;;22.21;34.01
77897;BME280;67092;64.282;21.056;2023-06-24T00:59:55;100812.80;;;22.65;33.42
77897;BME280;67092;64.282;21.056;2023-06-24T01:02:20;100816.74;;;22.50;33.64
77897;BME280;67092;64.282;21.056;2023-06-24T01:04:46;100815.29;;;22.63;33.42
77897;BME280;67092;64.282;21.056;2023-06-24T01:07:11;100819.66;;;22.77;33.27
77897;BME280;67092;64.282;21.056;2023-06-24T01:09:37;100821.52;;;22.63;33.76
77897;BME280;67092;64.282;21.056;2023-06-24T01:12:03;100818.37;;;22.59;33.16
77897;BME280;67092;64.282;21.056;2023-06-24T01:14:28;100820.76;;;22.94;33.09
77897;BME280;67092;64.282;21.056;2023-06-24T01:16:58;100821.36;;;22.77;33.34
77897;BME280;67092;64.282;21.056;2023-06-24T01:19:40;100821.19;;;22.67;33.48
77897;BME280;67092;64.282;21.056;2023-06-24T01:21:52;100818.53;;;22.95;33.14
77897;BME280;67092;64.282;21.056;2023-06-24T01:31:34;100820.46;;;22.74;33.41
77897;BME280;67092;64.282;21.056;2023-06-24T01:33:56;100819.62;;;22.31;33.91
77897;BME280;67092;64.282;21.056;2023-06-24T01:36:19;100819.21;;;22.43;33.78
77897;BME280;67092;64.282;21.056;2023-06-24T01:38:48;100819.08;;;22.91;33.49
77897;BME280;67092;64.282;21.056;2023-06-24T01:41:12;100815.57;;;22.67;33.49
77897;BME280;67092;64.282;21.056;2023-06-24T01:43:36;100817.86;;;22.49;33.71
77897;BME280;67092;64.282;21.056;2023-06-24T01:46:01;100819.60;;;22.71;33.42
77897;BME280;67092;64.282;21.056;2023-06-24T01:48:29;100819.28;;;22.92;33.23
77897;BME280;67092;64.282;21.056;2023-06-24T01:50:58;100822.88;;;22.50;33.70
77897;BME280;67092;64.282;21.056;2023-06-24T01:53:19;100822.53;;;22.52;33.67
77897;BME280;67092;64.282;21.056;2023-06-24T01:55:44;100822.53;;;22.25;34.02
77897;BME280;67092;64.282;21.056;2023-06-24T01:58:09;100823.15;;;22.81;33.35
77897;BME280;67092;64.282;21.056;2023-06-24T02:00:35;100825.57;;;23.19;33.16
77897;BME280;67092;64.282;21.056;2023-06-24T02:03:00;100826.29;;;22.71;33.44
77897;BME280;67092;64.282;21.056;2023-06-24T02:05:25;100825.45;;;22.77;33.38
77897;BME280;67092;64.282;21.056;2023-06-24T02:07:51;100825.68;;;22.75;33.41
77897;BME280;67092;64.282;21.056;2023-06-24T02:10:17;100826.82;;;22.81;33.31
77897;BME280;67092;64.282;21.056;2023-06-24T02:12:42;100825.50;;;23.01;33.12
77897;BME280;67092;64.282;21.056;2023-06-24T02:15:09;100825.23;;;22.63;33.61
77897;BME280;67092;64.282;21.056;2023-06-24T02:17:33;100825.05;;;22.58;33.68
77897;BME280;67092;64.282;21.056;2023-06-24T02:19:59;100824.18;;;22.45;33.84
77897;BME280;67092;64.282;21.056;2023-06-24T02:22:24;100826.43;;;22.41;33.61
77897;BME280;67092;64.282;21.056;2023-06-24T02:24:50;100828.75;;;23.03;33.10
77897;BME280;67092;64.282;21.056;2023-06-24T02:27:16;100826.53;;;22.65;33.57
77897;BME280;67092;64.282;21.056;2023-06-24T02:29:41;100827.01;;;22.80;33.76
77897;BME280;67092;64.282;21.056;2023-06-24T02:32:08;100830.65;;;22.63;33.63
77897;BME280;67092;64.282;21.056;2023-06-24T02:34:32;100829.79;;;22.37;33.70
77897;BME280;67092;64.282;21.056;2023-06-24T02:36:57;100836.61;;;22.52;33.76
77897;BME280;67092;64.282;21.056;2023-06-24T02:39:23;100838.99;;;22.04;34.40
77897;BME280;67092;64.282;21.056;2023-06-24T02:41:49;100833.86;;;22.56;34.05
77897;BME280;67092;64.282;21.056;2023-06-24T02:44:14;100832.15;;;22.30;34.04
77897;BME280;67092;64.282;21.056;2023-06-24T02:46:40;100836.69;;;22.24;34.12
77897;BME280;67092;64.282;21.056;2023-06-24T02:49:06;100833.52;;;22.67;33.57
77897;BME280;67092;64.282;21.056;2023-06-24T02:51:31;100831.90;;;22.55;33.73
77897;BME280;67092;64.282;21.056;2023-06-24T02:53:57;100830.56;;;22.69;33.51
77897;BME280;67092;64.282;21.056;2023-06-24T02:56:22;100831.29;;;22.55;33.72
77897;BME280;67092;64.282;21.056;2023-06-24T02:58:48;100832.19;;;22.30;33.74
77897;BME280;67092;64.282;21.056;2023-06-24T03:01:14;100834.71;;;22.18;34.20
77897;BME280;67092;64.282;21.056;2023-06-24T03:03:40;100835.59;;;22.37;33.97
77897;BME280;67092;64.282;21.056;2023-06-24T03:06:04;100837.14;;;22.75;33.80
77897;BME280;67092;64.282;21.056;2023-06-24T03:08:30;100840.50;;;22.77;33.46
77897;BME280;67092;64.282;21.056;2023-06-24T03:10:56;100836.31;;;22.47;34.12
77897;BME280;67092;64.282;21.056;2023-06-24T03:13:21;100835.74;;;22.43;34.16
77897;BME280;67092;64.282;21.056;2023-06-24T03:15:46;100836.86;;;22.77;33.76
77897;BME280;67092;64.282;21.056;2023-06-24T03:18:12;100842.88;;;22.29;34.37
77897;BME280;67092;64.282;21.056;2023-06-24T03:20:38;100841.37;;;23.19;32.96
77897;BME280;67092;64.282;21.056;2023-06-24T03:23:03;100842.66;;;22.79;33.43
77897;BME280;67092;64.282;21.056;2023-06-24T03:25:29;100843.15;;;22.35;34.00
77897;BME280;67092;64.282;21.056;2023-06-24T03:27:54;100849.08;;;22.36;34.59
77897;BME280;67092;64.282;21.056;2023-06-24T03:30:20;100845.38;;;22.34;33.99
77897;BME280;67092;64.282;21.056;2023-06-24T03:32:46;100849.95;;;22.65;34.25
77897;BME280;67092;64.282;21.056;2023-06-24T03:35:11;100844.67;;;22.50;33.82
77897;BME280;67092;64.282;21.056;2023-06-24T03:37:37;100846.64;;;22.75;33.43
77897;BME280;67092;64.282;21.056;2023-06-24T03:40:03;100846.46;;;22.73;33.51
77897;BME280;67092;64.282;21.056;2023-06-24T03:42:28;100845.98;;;22.51;33.77
77897;BME280;67092;64.282;21.056;2023-06-24T03:44:53;100849.19;;;22.31;34.34
77897;BME280;67092;64.282;21.056;2023-06-24T03:47:19;100846.10;;;22.37;33.97
77897;BME280;67092;64.282;21.056;2023-06-24T03:49:45;100851.17;;;22.48;33.84
77897;BME280;67092;64.282;21.056;2023-06-24T03:52:10;100855.26;;;22.46;33.85
77897;BME280;67092;64.282;21.056;2023-06-24T03:54:36;100857.98;;;22.61;33.70
77897;BME280;67092;64.282;21.056;2023-06-24T03:57:01;100858.82;;;22.35;34.04
77897;BME280;67092;64.282;21.056;2023-06-24T03:59:27;100860.18;;;22.27;34.13
77897;BME280;67092;64.282;21.056;2023-06-24T04:01:52;100857.83;;;22.36;34.02
77897;BME280;67092;64.282;21.056;2023-06-24T04:04:18;100854.36;;;22.58;34.05
77897;BME280;67092;64.282;21.056;2023-06-24T04:06:44;100856.74;;;22.66;33.99
77897;BME280;67092;64.282;21.056;2023-06-24T04:09:09;100860.14;;;22.54;33.78
77897;BME280;67092;64.282;21.056;2023-06-24T04:11:35;100862.88;;;22.75;33.53
77897;BME280;67092;64.282;21.056;2023-06-24T04:14:00;100865.46;;;22.45;33.95
77897;BME280;67092;64.282;21.056;2023-06-24T04:16:26;100864.95;;;23.05;33.46
77897;BME280;67092;64.282;21.056;2023-06-24T04:18:51;100866.03;;;22.97;33.59
77897;BME280;67092;64.282;21.056;2023-06-24T04:21:17;100868.24;;;22.64;33.68
77897;BME280;67092;64.282;21.056;2023-06-24T04:23:42;100864.08;;;22.37;33.73
77897;BME280;67092;64.282;21.056;2023-06-24T04:26:08;100863.64;;;22.57;33.76
77897;BME280;67092;64.282;21.056;2023-06-24T04:28:34;100863.91;;;22.57;33.78
77897;BME280;67092;64.282;21.056;2023-06-24T04:30:59;100868.53;;;22.28;34.16
77897;BME280;67092;64.282;21.056;2023-06-24T04:33:25;100868.53;;;22.75;33.59
77897;BME280;67092;64.282;21.056;2023-06-24T04:35:50;100868.95;;;22.82;33.47
77897;BME280;67092;64.282;21.056;2023-06-24T04:38:16;100867.32;;;22.57;33.81
77897;BME280;67092;64.282;21.056;2023-06-24T04:40:41;100873.99;;;22.55;33.84
77897;BME280;67092;64.282;21.056;2023-06-24T04:43:07;100873.62;;;22.35;34.09
77897;BME280;67092;64.282;21.056;2023-06-24T04:45:33;100875.82;;;22.08;34.51
77897;BME280;67092;64.282;21.056;2023-06-24T04:47:58;100874.77;;;22.86;33.47
77897;BME280;67092;64.282;21.056;2023-06-24T04:50:24;100876.98;;;23.06;33.24
77897;BME280;67092;64.282;21.056;2023-06-24T04:52:52;100876.41;;;22.75;33.91
77897;BME280;67092;64.282;21.056;2023-06-24T04:55:15;100875.36;;;22.64;33.78
77897;BME280;67092;64.282;21.056;2023-06-24T04:57:41;100874.41;;;22.56;33.84
77897;BME280;67092;64.282;21.056;2023-06-24T05:00:07;100874.89;;;22.61;33.83
77897;BME280;67092;64.282;21.056;2023-06-24T05:02:32;100876.53;;;22.86;33.49
77897;BME280;67092;64.282;21.056;2023-06-24T05:04:58;100880.75;;;22.44;34.05
77897;BME280;67092;64.282;21.056;2023-06-24T05:07:23;100882.21;;;22.72;33.44
77897;BME280;67092;64.282;21.056;2023-06-24T05:09:49;100881.86;;;22.97;33.38
77897;BME280;67092;64.282;21.056;2023-06-24T05:12:14;100887.37;;;22.10;34.50
77897;BME280;67092;64.282;21.056;2023-06-24T05:14:39;100886.60;;;22.49;34.06
77897;BME280;67092;64.282;21.056;2023-06-24T05:17:05;100889.85;;;22.51;34.04
77897;BME280;67092;64.282;21.056;2023-06-24T05:19:31;100889.95;;;22.60;33.94
77897;BME280;67092;64.282;21.056;2023-06-24T05:21:56;100894.73;;;22.62;33.87
77897;BME280;67092;64.282;21.056;2023-06-24T05:24:22;100890.84;;;22.89;33.56
77897;BME280;67092;64.282;21.056;2023-06-24T05:26:49;100893.75;;;22.33;34.24
77897;BME280;67092;64.282;21.056;2023-06-24T05:29:13;100896.97;;;22.39;34.17
77897;BME280;67092;64.282;21.056;2023-06-24T05:31:40;100897.60;;;22.58;33.94
77897;BME280;67092;64.282;21.056;2023-06-24T05:34:04;100891.57;;;22.85;33.62
77897;BME280;67092;64.282;21.056;2023-06-24T05:36:30;100893.18;;;22.38;34.20
77897;BME280;67092;64.282;21.056;2023-06-24T05:38:55;100891.58;;;22.25;34.36
77897;BME280;67092;64.282;21.056;2023-06-24T05:41:21;100891.34;;;22.48;33.77
77897;BME280;67092;64.282;21.056;2023-06-24T05:43:47;100895.43;;;22.76;34.17
77897;BME280;67092;64.282;21.056;2023-06-24T05:46:12;100887.53;;;23.08;33.66
77897;BME280;67092;64.282;21.056;2023-06-24T05:48:38;100892.63;;;24.14;32.63
77897;BME280;67092;64.282;21.056;2023-06-24T05:51:03;100892.93;;;24.02;32.29
77897;BME280;67092;64.282;21.056;2023-06-24T05:53:29;100895.18;;;24.61;31.84
77897;BME280;67092;64.282;21.056;2023-06-24T05:55:55;100894.50;;;24.12;31.87
77897;BME280;67092;64.282;21.056;2023-06-24T05:58:20;100900.39;;;23.88;31.47
77897;BME280;67092;64.282;21.056;2023-06-24T06:00:46;100899.59;;;23.93;31.70
77897;BME280;67092;64.282;21.056;2023-06-24T06:03:11;100899.56;;;23.81;31.48
77897;BME280;67092;64.282;21.056;2023-06-24T06:05:37;100899.72;;;24.02;31.03
77897;BME280;67092;64.282;21.056;2023-06-24T06:08:03;100900.74;;;23.61;30.99
77897;BME280;67092;64.282;21.056;2023-06-24T06:10:28;100904.79;;;23.69;30.53
77897;BME280;67092;64.282;21.056;2023-06-24T06:12:54;100907.64;;;24.25;30.39
77897;BME280;67092;64.282;21.056;2023-06-24T06:15:19;100909.83;;;24.24;30.09
77897;BME280;67092;64.282;21.056;2023-06-24T06:17:45;100911.17;;;24.11;30.21
77897;BME280;67092;64.282;21.056;2023-06-24T06:20:11;100912.86;;;23.57;30.38
77897;BME280;67092;64.282;21.056;2023-06-24T06:22:36;100917.32;;;23.54;30.39
77897;BME280;67092;64.282;21.056;2023-06-24T06:25:01;100921.23;;;23.34;30.58
77897;BME280;67092;64.282;21.056;2023-06-24T06:27:27;100921.05;;;23.33;30.32
77897;BME280;67092;64.282;21.056;2023-06-24T06:29:53;100924.67;;;23.66;30.23
77897;BME280;67092;64.282;21.056;2023-06-24T06:32:18;100926.61;;;23.15;30.21
77897;BME280;67092;64.282;21.056;2023-06-24T06:34:44;100929.18;;;23.49;30.13
77897;BME280;67092;64.282;21.056;2023-06-24T06:37:09;100932.72;;;23.87;29.82
77897;BME280;67092;64.282;21.056;2023-06-24T06:39:35;100933.47;;;23.42;30.09
77897;BME280;67092;64.282;21.056;2023-06-24T06:42:01;100935.88;;;23.94;29.59
77897;BME280;67092;64.282;21.056;2023-06-24T06:44:26;100934.40;;;24.03;29.30
77897;BME280;67092;64.282;21.056;2023-06-24T06:46:52;100929.90;;;23.21;29.89
77897;BME280;67092;64.282;21.056;2023-06-24T06:49:17;100932.75;;;24.04;29.31
77897;BME280;67092;64.282;21.056;2023-06-24T06:51:43;100935.32;;;23.74;29.37
77897;BME280;67092;64.282;21.056;2023-06-24T06:54:08;100938.42;;;23.44;29.45
77897;BME280;67092;64.282;21.056;2023-06-24T06:56:34;100940.03;;;23.68;29.28
77897;BME280;67092;64.282;21.056;2023-06-24T06:59:00;100945.55;;;23.57;29.44
77897;BME280;67092;64.282;21.056;2023-06-24T07:01:25;100946.06;;;23.57;29.50
77897;BME280;67092;64.282;21.056;2023-06-24T07:03:51;100946.53;;;24.15;28.98
77897;BME280;67092;64.282;21.056;2023-06-24T07:06:18;100950.19;;;23.64;29.58
77897;BME280;67092;64.282;21.056;2023-06-24T07:08:42;100946.15;;;23.44;29.46
77897;BME280;67092;64.282;21.056;2023-06-24T07:11:08;100953.92;;;23.32;29.44
77897;BME280;67092;64.282;21.056;2023-06-24T07:13:33;100954.06;;;23.40;29.38
77897;BME280;67092;64.282;21.056;2023-06-24T07:15:59;100958.08;;;23.18;29.71
77897;BME280;67092;64.282;21.056;2023-06-24T07:18:24;100958.01;;;23.18;29.37
77897;BME280;67092;64.282;21.056;2023-06-24T07:20:53;100959.42;;;23.97;29.05
77897;BME280;67092;64.282;21.056;2023-06-24T07:23:15;100967.79;;;23.15;29.24
77897;BME280;67092;64.282;21.056;2023-06-24T07:25:41;100966.38;;;23.65;28.88
77897;BME280;67092;64.282;21.056;2023-06-24T07:28:07;100965.98;;;23.83;28.75
77897;BME280;67092;64.282;21.056;2023-06-24T07:30:32;100971.48;;;23.66;28.92
77897;BME280;67092;64.282;21.056;2023-06-24T07:32:58;100972.39;;;23.63;29.08
77897;BME280;67092;64.282;21.056;2023-06-24T07:35:23;100976.30;;;23.43;29.19
77897;BME280;67092;64.282;21.056;2023-06-24T07:37:49;100978.09;;;23.19;29.06
77897;BME280;67092;64.282;21.056;2023-06-24T07:40:15;100979.27;;;23.70;28.82
77897;BME280;67092;64.282;21.056;2023-06-24T07:42:41;100983.25;;;23.14;29.10
77897;BME280;67092;64.282;21.056;2023-06-24T07:45:06;100985.82;;;23.76;29.12
77897;BME280;67092;64.282;21.056;2023-06-24T07:47:32;100987.49;;;23.37;28.88
77897;BME280;67092;64.282;21.056;2023-06-24T07:49:57;100985.77;;;23.60;28.88
77897;BME280;67092;64.282;21.056;2023-06-24T07:52:22;100988.60;;;23.72;29.06
77897;BME280;67092;64.282;21.056;2023-06-24T07:54:48;100988.67;;;23.73;29.02
77897;BME280;67092;64.282;21.056;2023-06-24T07:57:14;100990.87;;;23.41;28.85
77897;BME280;67092;64.282;21.056;2023-06-24T07:59:39;100993.49;;;23.64;28.72
77897;BME280;67092;64.282;21.056;2023-06-24T08:02:05;100990.94;;;23.49;28.99
77897;BME280;67092;64.282;21.056;2023-06-24T08:04:30;100995.25;;;23.74;28.97
77897;BME280;67092;64.282;21.056;2023-06-24T08:06:56;100993.24;;;23.40;29.04
77897;BME280;67092;64.282;21.056;2023-06-24T08:09:21;100993.71;;;23.50;29.08
77897;BME280;67092;64.282;21.056;2023-06-24T08:11:48;100994.78;;;23.49;28.84
77897;BME280;67092;64.282;21.056;2023-06-24T08:14:13;100994.37;;;23.51;28.94
77897;BME280;67092;64.282;21.056;2023-06-24T08:16:38;100993.17;;;24.08;28.51
77897;BME280;67092;64.282;21.056;2023-06-24T08:19:04;100998.27;;;23.35;29.34
77897;BME280;67092;64.282;21.056;2023-06-24T08:21:29;100998.65;;;23.47;29.27
77897;BME280;67092;64.282;21.056;2023-06-24T08:23:55;100999.81;;;23.70;28.45
77897;BME280;67092;64.282;21.056;2023-06-24T08:26:21;101004.19;;;23.37;28.94
77897;BME280;67092;64.282;21.056;2023-06-24T08:28:46;101008.01;;;23.87;28.66
77897;BME280;67092;64.282;21.056;2023-06-24T08:31:12;101008.60;;;23.56;28.67
77897;BME280;67092;64.282;21.056;2023-06-24T08:33:37;101010.75;;;23.50;28.79
77897;BME280;67092;64.282;21.056;2023-06-24T08:36:03;101016.60;;;24.00;28.40
77897;BME280;67092;64.282;21.056;2023-06-24T08:38:28;101018.97;;;23.72;28.50
77897;BME280;67092;64.282;21.056;2023-06-24T08:40:54;101021.81;;;23.06;29.50
77897;BME280;67092;64.282;21.056;2023-06-24T08:43:20;101026.02;;;23.15;29.17
77897;BME280;67092;64.282;21.056;2023-06-24T08:45:45;101033.99;;;22.99;29.28
77897;BME280;67092;64.282;21.056;2023-06-24T08:48:12;101037.19;;;23.84;28.74
77897;BME280;67092;64.282;21.056;2023-06-24T08:50:43;101041.11;;;23.62;28.93
77897;BME280;67092;64.282;21.056;2023-06-24T08:53:05;101042.30;;;23.18;28.83
77897;BME280;67092;64.282;21.056;2023-06-24T08:55:29;101044.57;;;23.25;28.82
77897;BME280;67092;64.282;21.056;2023-06-24T08:57:53;101042.56;;;23.55;28.90
77897;BME280;67092;64.282;21.056;2023-06-24T09:00:19;101045.73;;;23.73;28.65
77897;BME280;67092;64.282;21.056;2023-06-24T09:02:45;101050.47;;;23.57;28.91
77897;BME280;67092;64.282;21.056;2023-06-24T09:05:10;101050.65;;;23.56;28.97
77897;BME280;67092;64.282;21.056;2023-06-24T09:07:37;101052.14;;;23.09;28.87
77897;BME280;67092;64.282;21.056;2023-06-24T09:10:01;101055.60;;;23.16;29.32
77897;BME280;67092;64.282;21.056;2023-06-24T09:12:27;101055.45;;;23.52;28.83
77897;BME280;67092;64.282;21.056;2023-06-24T09:14:52;101053.40;;;23.51;28.85
77897;BME280;67092;64.282;21.056;2023-06-24T09:17:18;101056.01;;;23.11;29.11
77897;BME280;67092;64.282;21.056;2023-06-24T09:19:43;101058.48;;;23.60;28.75
77897;BME280;67092;64.282;21.056;2023-06-24T09:22:10;101061.26;;;23.36;28.78
77897;BME280;67092;64.282;21.056;2023-06-24T09:24:36;101063.99;;;23.54;28.78
77897;BME280;67092;64.282;21.056;2023-06-24T09:27:01;101060.70;;;22.97;28.77
77897;BME280;67092;64.282;21.056;2023-06-24T09:29:26;101058.86;;;23.37;28.64
77897;BME280;67092;64.282;21.056;2023-06-24T09:31:51;101057.69;;;23.55;28.83
77897;BME280;67092;64.282;21.056;2023-06-24T09:34:17;101060.61;;;23.20;29.03
77897;BME280;67092;64.282;21.056;2023-06-24T09:36:43;101065.99;;;23.39;29.06
77897;BME280;67092;64.282;21.056;2023-06-24T09:39:08;101069.93;;;23.14;28.88
77897;BME280;67092;64.282;21.056;2023-06-24T09:41:33;101074.74;;;23.44;28.73
77897;BME280;67092;64.282;21.056;2023-06-24T09:43:59;101077.34;;;23.59;28.79
77897;BME280;67092;64.282;21.056;2023-06-24T09:46:25;101075.44;;;23.75;28.47
77897;BME280;67092;64.282;21.056;2023-06-24T09:48:50;101076.01;;;23.51;28.77
77897;BME280;67092;64.282;21.056;2023-06-24T09:51:16;101078.42;;;23.17;28.83
77897;BME280;67092;64.282;21.056;2023-06-24T09:53:43;101080.76;;;23.49;28.73
77897;BME280;67092;64.282;21.056;2023-06-24T09:56:08;101077.83;;;23.06;28.98
77897;BME280;67092;64.282;21.056;2023-06-24T09:58:36;101079.46;;;23.64;28.58
77897;BME280;67092;64.282;21.056;2023-06-24T10:01:02;101079.72;;;22.93;28.98
77897;BME280;67092;64.282;21.056;2023-06-24T10:03:24;101077.55;;;23.42;28.58
77897;BME280;67092;64.282;21.056;2023-06-24T10:05:50;101080.03;;;23.59;28.80
77897;BME280;67092;64.282;21.056;2023-06-24T10:08:15;101078.36;;;23.05;29.03
77897;BME280;67092;64.282;21.056;2023-06-24T10:10:40;101078.74;;;23.36;28.63
77897;BME280;67092;64.282;21.056;2023-06-24T10:13:06;101083.40;;;23.56;28.78
77897;BME280;67092;64.282;21.056;2023-06-24T10:15:32;101087.88;;;23.16;28.95
77897;BME280;67092;64.282;21.056;2023-06-24T10:18:01;101095.00;;;23.72;28.52
77897;BME280;67092;64.282;21.056;2023-06-24T10:20:24;101098.71;;;23.54;28.71
77897;BME280;67092;64.282;21.056;2023-06-24T10:22:51;101099.65;;;23.77;28.46
77897;BME280;67092;64.282;21.056;2023-06-24T10:25:14;101102.45;;;23.95;28.28
77897;BME280;67092;64.282;21.056;2023-06-24T10:27:40;101098.23;;;23.45;28.78
77897;BME280;67092;64.282;21.056;2023-06-24T10:30:06;101098.31;;;23.49;28.93
77897;BME280;67092;64.282;21.056;2023-06-24T10:32:39;101096.12;;;23.37;28.98
77897;BME280;67092;64.282;21.056;2023-06-24T10:34:57;101095.45;;;23.22;28.90
77897;BME280;67092;64.282;21.056;2023-06-24T10:37:23;101094.27;;;23.52;28.65
77897;BME280;67092;64.282;21.056;2023-06-24T10:39:50;101098.43;;;23.29;28.44
77897;BME280;67092;64.282;21.056;2023-06-24T10:42:26;101105.17;;;23.62;28.48
77897;BME280;67092;64.282;21.056;2023-06-24T10:44:45;101109.09;;;23.46;28.36
77897;BME280;67092;64.282;21.056;2023-06-24T10:47:05;101108.86;;;23.55;28.41
77897;BME280;67092;64.282;21.056;2023-06-24T10:49:30;101114.08;;;23.21;28.52
77897;BME280;67092;64.282;21.056;2023-06-24T10:51:55;101116.59;;;23.54;28.39
77897;BME280;67092;64.282;21.056;2023-06-24T10:54:21;101117.41;;;23.24;28.48
77897;BME280;67092;64.282;21.056;2023-06-24T10:56:47;101115.48;;;23.35;28.60
77897;BME280;67092;64.282;21.056;2023-06-24T10:59:13;101115.73;;;23.85;28.42
77897;BME280;67092;64.282;21.056;2023-06-24T11:04:05;101124.47;;;23.43;29.02
77897;BME280;67092;64.282;21.056;2023-06-24T11:06:29;101124.08;;;23.20;29.23
77897;BME280;67092;64.282;21.056;2023-06-24T11:09:01;101128.89;;;23.55;28.71
77897;BME280;67092;64.282;21.056;2023-06-24T11:11:20;101127.04;;;23.48;28.85
77897;BME280;67092;64.282;21.056;2023-06-24T11:13:48;101125.75;;;23.64;28.61
77897;BME280;67092;64.282;21.056;2023-06-24T11:16:11;101130.66;;;22.81;28.89
77897;BME280;67092;64.282;21.056;2023-06-24T11:18:38;101128.74;;;22.42;29.51
77897;BME280;67092;64.282;21.056;2023-06-24T11:21:02;101130.07;;;23.52;28.65
77897;BME280;67092;64.282;21.056;2023-06-24T11:23:28;101134.16;;;23.53;28.79
77897;BME280;67092;64.282;21.056;2023-06-24T11:25:54;101136.40;;;23.33;28.74
77897;BME280;67092;64.282;21.056;2023-06-24T11:28:19;101138.28;;;23.32;29.08
77897;BME280;67092;64.282;21.056;2023-06-24T11:30:45;101140.13;;;22.85;28.99
77897;BME280;67092;64.282;21.056;2023-06-24T11:33:10;101134.55;;;23.17;28.93
77897;BME280;67092;64.282;21.056;2023-06-24T11:35:36;101135.52;;;23.40;28.66
77897;BME280;67092;64.282;21.056;2023-06-24T11:38:01;101131.36;;;23.32;28.68
77897;BME280;67092;64.282;21.056;2023-06-24T11:40:27;101136.77;;;23.83;28.39
77897;BME280;67092;64.282;21.056;2023-06-24T11:42:53;101138.83;;;23.28;28.89
77897;BME280;67092;64.282;21.056;2023-06-24T11:45:21;101139.34;;;23.14;29.26
77897;BME280;67092;64.282;21.056;2023-06-24T11:47:44;101137.50;;;23.49;28.48
77897;BME280;67092;64.282;21.056;2023-06-24T11:50:09;101137.07;;;23.22;28.54
77897;BME280;67092;64.282;21.056;2023-06-24T11:52:40;101141.41;;;23.17;29.15
77897;BME280;67092;64.282;21.056;2023-06-24T11:55:00;101134.57;;;23.43;28.46
77897;BME280;67092;64.282;21.056;2023-06-24T11:59:52;101139.09;;;23.28;28.77
77897;BME280;67092;64.282;21.056;2023-06-24T12:02:17;101145.17;;;23.28;29.20
77897;BME280;67092;64.282;21.056;2023-06-24T12:04:43;101143.10;;;23.65;28.66
77897;BME280;67092;64.282;21.056;2023-06-24T12:07:09;101144.61;;;23.76;28.57
77897;BME280;67092;64.282;21.056;2023-06-24T12:09:34;101149.57;;;22.99;29.16
77897;BME280;67092;64.282;21.056;2023-06-24T12:11:59;101144.34;;;23.74;28.50
77897;BME280;67092;64.282;21.056;2023-06-24T12:14:25;101150.20;;;23.42;28.87
77897;BME280;67092;64.282;21.056;2023-06-24T12:16:51;101149.26;;;23.28;29.06
77897;BME280;67092;64.282;21.056;2023-06-24T12:19:16;101149.12;;;23.47;29.06
77897;BME280;67092;64.282;21.056;2023-06-24T12:21:42;101150.70;;;23.79;28.46
77897;BME280;67092;64.282;21.056;2023-06-24T12:24:07;101149.41;;;23.78;28.23
77897;BME280;67092;64.282;21.056;2023-06-24T12:26:33;101149.20;;;23.63;28.64
77897;BME280;67092;64.282;21.056;2023-06-24T12:28:58;101154.75;;;23.48;28.91
77897;BME280;67092;64.282;21.056;2023-06-24T12:31:24;101157.28;;;23.42;28.93
77897;BME280;67092;64.282;21.056;2023-06-24T12:33:50;101156.60;;;23.57;28.39
77897;BME280;67092;64.282;21.056;2023-06-24T12:36:15;101161.85;;;23.39;28.51
77897;BME280;67092;64.282;21.056;2023-06-24T12:38:41;101159.98;;;22.92;29.29
77897;BME280;67092;64.282;21.056;2023-06-24T12:41:06;101162.47;;;23.68;28.52
77897;BME280;67092;64.282;21.056;2023-06-24T12:43:32;101160.12;;;23.40;28.56